Time;durP1;ratioP1;P1;durP2;ratioP2;P2;SDS_P1;SDS_P2;PMS_P1;PMS_P2;Temp;Humidity;BMP_temperature;BMP_pressure;BME280_temperature;BME280_humidity;BME280_pressure;Samples;Min_cycle;Max_cycle;Signal;HPM_P1;HPM_P2
2021/12/18 00:00:12;;;;;;;2.37;2.17;;;1.50;1.40;;;3.05;100.00;97217.19;646679;216;32477;-75
2021/12/18 00:02:53;;;;;;;2.62;2.42;;;1.50;1.40;;;3.14;100.00;97216.55;619758;226;32654;-74
2021/12/18 00:05:35;;;;;;;3.30;3.00;;;1.60;1.40;;;2.82;100.00;97220.86;648437;216;32193;-74
2021/12/18 00:08:17;;;;;;;3.90;3.10;;;1.50;1.40;;;2.80;100.00;97211.42;645942;216;38517;-75
2021/12/18 00:10:58;;;;;;;3.37;2.70;;;1.50;1.40;;;3.04;100.00;97217.45;646748;216;32195;-75
2021/12/18 00:13:41;;;;;;;2.78;2.58;;;1.60;1.40;;;3.19;100.00;97222.11;647777;212;32231;-74
2021/12/18 00:16:23;;;;;;;2.70;2.40;;;1.50;1.40;;;2.96;100.00;97230.58;647238;212;41324;-75
2021/12/18 00:19:04;;;;;;;2.17;1.98;;;1.50;1.40;;;3.18;100.00;97230.38;619514;222;31874;-74
2021/12/18 00:21:46;;;;;;;2.95;1.80;;;1.50;1.40;;;3.12;100.00;97229.20;647275;216;31583;-74
2021/12/18 00:24:28;;;;;;;3.22;3.03;;;1.50;1.40;;;2.77;100.00;97227.60;647411;216;31582;-75
2021/12/18 00:27:09;;;;;;;3.15;2.90;;;1.40;1.40;;;3.08;100.00;97225.11;646226;216;31595;-74
2021/12/18 00:29:51;;;;;;;6.18;4.07;;;1.50;1.40;;;3.08;100.00;97225.66;619570;226;31876;-75
2021/12/18 00:32:33;;;;;;;3.75;2.75;;;1.50;1.40;;;2.85;100.00;97229.23;646383;213;31761;-75
2021/12/18 00:35:54;;;;;;;4.12;2.70;;;1.40;1.40;;;2.75;100.00;97232.08;647114;216;42798;-75
2021/12/18 00:38:36;;;;;;;1.75;1.52;;;1.40;1.40;;;2.77;100.00;97248.75;619110;222;32469;-75
2021/12/18 00:44:13;;;;;;;2.55;2.20;;;1.20;1.40;;;2.04;100.00;97267.00;646838;212;31598;-75
2021/12/18 00:46:55;;;;;;;3.15;1.90;;;1.10;1.40;;;2.29;100.00;97266.17;646286;213;31606;-75
2021/12/18 00:49:39;;;;;;;5.65;3.70;;;1.10;1.40;;;2.32;100.00;97267.91;643629;216;31580;-75
2021/12/18 00:52:23;;;;;;;3.47;1.85;;;1.10;1.40;;;2.63;100.00;97266.55;618528;226;32072;-74
2021/12/18 00:55:04;;;;;;;3.50;2.45;;;1.20;1.40;;;2.47;100.00;97267.56;646764;212;31593;-75
2021/12/18 00:57:46;;;;;;;4.40;2.33;;;1.20;1.40;;;2.38;100.00;97265.41;645943;216;31626;-76
2021/12/18 01:00:30;;;;;;;3.22;2.83;;;1.10;1.40;;;2.76;100.00;97269.38;646630;216;31613;-75
2021/12/18 01:03:17;;;;;;;3.63;3.10;;;1.20;1.40;;;2.62;100.00;97267.35;646309;216;31638;-75
2021/12/18 01:05:55;;;;;;;3.90;3.47;;;1.20;1.40;;;2.82;100.00;97268.06;637808;216;31734;-75
2021/12/18 01:08:37;;;;;;;2.50;2.30;;;1.10;1.40;;;2.78;100.00;97270.50;646748;216;31585;-75
2021/12/18 01:11:32;;;;;;;2.15;1.95;;;1.10;1.40;;;2.74;100.00;97277.97;646279;216;31540;-75
2021/12/18 01:22:52;;;;;;;3.50;2.62;;;1.00;1.40;;;2.27;100.00;97293.12;646722;216;31705;-75
2021/12/18 01:25:34;;;;;;;6.78;2.55;;;0.90;1.40;;;1.94;100.00;97293.27;647259;212;31580;-75
2021/12/18 01:28:16;;;;;;;2.70;1.92;;;0.80;1.40;;;1.79;100.00;97297.83;646431;212;31587;-75
2021/12/18 01:30:57;;;;;;;2.00;1.73;;;0.70;1.40;;;2.15;100.00;97297.16;647074;216;31586;-75
2021/12/18 01:35:53;;;;;;;3.03;2.83;;;0.80;1.40;;;2.39;100.00;97303.37;647509;216;42194;-75
2021/12/18 01:38:33;;;;;;;3.10;2.42;;;0.90;1.40;;;2.41;100.00;97305.42;647176;212;31649;-75
2021/12/18 01:41:16;;;;;;;3.20;2.60;;;0.90;1.40;;;2.12;100.00;97307.34;647435;212;31662;-75
2021/12/18 01:51:12;;;;;;;3.50;3.20;;;0.70;1.40;;;1.93;100.00;97305.02;646470;212;31869;-74
2021/12/18 01:52:42;;;;;;;3.05;2.85;;;0.80;1.40;;;2.31;100.00;97302.91;616648;227;31868;-74
2021/12/18 01:55:27;;;;;;;4.72;2.35;;;0.80;1.40;;;2.43;100.00;97302.04;645924;216;31660;-73
2021/12/18 01:58:09;;;;;;;3.08;2.58;;;0.80;1.40;;;2.09;100.00;97301.53;619058;226;32625;-74
2021/12/18 02:00:51;;;;;;;3.92;3.53;;;0.70;1.40;;;2.28;100.00;97301.78;646345;212;31547;-75
2021/12/18 02:03:32;;;;;;;6.57;3.95;;;0.80;1.40;;;2.34;100.00;97296.31;647379;216;31584;-75
2021/12/18 02:06:17;;;;;;;3.53;3.22;;;0.90;1.40;;;2.50;100.00;97286.16;636785;212;32592;-75
2021/12/18 02:08:59;;;;;;;5.07;3.55;;;0.90;1.40;;;2.22;100.00;97275.66;647358;216;42365;-75
2021/12/18 02:11:40;;;;;;;3.45;2.65;;;0.80;1.40;;;2.30;100.00;97278.70;646460;212;31810;-74
2021/12/18 02:19:31;;;;;;;3.83;3.43;;;0.80;1.40;;;2.19;100.00;97269.02;647458;216;33482;-75
2021/12/18 02:19:58;;;;;;;5.03;3.55;;;0.80;1.40;;;2.20;100.00;97250.44;647065;216;32163;-75
2021/12/18 02:22:33;;;;;;;2.95;2.62;;;0.80;1.40;;;1.87;100.00;97254.61;646246;216;31564;-74
2021/12/18 02:25:15;;;;;;;4.65;2.10;;;0.70;1.40;;;1.65;100.00;97253.47;646243;212;31628;-74
2021/12/18 02:27:56;;;;;;;3.30;2.22;;;0.60;1.40;;;1.95;100.00;97253.09;646177;216;31541;-75
2021/12/18 02:30:38;;;;;;;3.35;2.58;;;0.70;1.40;;;1.76;100.00;97258.92;647088;216;31569;-75
2021/12/18 02:35:54;;;;;;;3.35;1.87;;;0.50;1.40;;;2.11;100.00;97252.83;646902;216;31789;-75
2021/12/18 02:38:56;;;;;;;2.40;2.00;;;0.70;1.40;;;2.23;100.00;97252.00;647337;212;31532;-75
2021/12/18 02:44:03;;;;;;;6.65;3.20;;;0.60;1.40;;;1.85;100.00;97259.77;646733;216;42557;-75
2021/12/18 02:46:44;;;;;;;7.45;3.33;;;0.60;1.40;;;2.15;100.00;97257.77;617858;226;31930;-75
2021/12/18 02:49:28;;;;;;;3.75;2.58;;;0.70;1.40;;;2.15;100.00;97250.09;619041;225;32581;-75
2021/12/18 02:52:11;;;;;;;5.18;3.00;;;0.70;1.40;;;1.93;100.00;97250.63;620390;222;32079;-76
2021/12/18 02:54:54;;;;;;;3.70;2.00;;;0.60;1.40;;;2.27;100.00;97246.95;620893;222;31941;-75
2021/12/18 02:57:35;;;;;;;3.05;2.83;;;0.70;1.40;;;2.42;100.00;97242.95;645719;216;31615;-74
2021/12/18 03:00:17;;;;;;;5.50;3.47;;;0.70;1.40;;;2.32;100.00;97237.49;646725;216;31562;-75
2021/12/18 03:03:08;;;;;;;3.75;1.65;;;0.80;1.40;;;2.56;100.00;97239.33;647168;216;32534;-75
2021/12/18 03:05:57;;;;;;;3.30;3.00;;;0.80;1.40;;;2.43;100.00;97241.59;631789;220;39031;-75
2021/12/18 03:08:40;;;;;;;4.20;3.78;;;0.80;1.40;;;2.39;100.00;97240.36;646518;216;31688;-75
2021/12/18 03:20:21;;;;;;;3.72;2.03;;;0.70;1.40;;;2.52;100.00;97229.87;646258;216;42438;-75
2021/12/18 03:22:47;;;;;;;5.05;2.72;;;0.80;1.40;;;2.50;100.00;97238.20;647113;216;31679;-75
2021/12/18 03:25:18;;;;;;;3.70;2.50;;;0.70;1.40;;;2.40;100.00;97225.52;652861;216;24945;-76
2021/12/18 03:28:00;;;;;;;1.87;1.70;;;0.70;1.40;;;2.23;100.00;97218.77;648007;216;31546;-77
2021/12/18 03:30:45;;;;;;;4.85;4.45;;;0.70;1.40;;;2.05;100.00;97214.81;620206;226;31989;-76
2021/12/18 03:35:55;;;;;;;5.50;3.45;;;0.60;1.40;;;1.91;100.00;97213.11;619412;222;31891;-74
2021/12/18 03:38:36;;;;;;;5.28;2.90;;;0.50;1.40;;;1.94;100.00;97217.73;646848;216;31671;-75
2021/12/18 03:41:18;;;;;;;3.10;2.70;;;0.50;1.40;;;2.12;100.00;97216.75;620292;222;31856;-74
2021/12/18 03:44:11;;;;;;;1.85;1.75;;;0.60;1.40;;;1.97;100.00;97210.50;646693;216;31670;-76
2021/12/18 03:46:55;;;;;;;12.52;3.83;;;0.60;1.40;;;1.97;100.00;97205.52;631427;222;31702;-74
2021/12/18 03:49:36;;;;;;;2.78;2.67;;;0.60;1.40;;;2.00;100.00;97206.35;620195;222;32369;-75
2021/12/18 03:52:18;;;;;;;2.15;1.90;;;0.70;1.40;;;2.27;100.00;97213.02;620679;222;31920;-75
2021/12/18 03:55:02;;;;;;;1.85;1.75;;;0.70;1.40;;;2.09;100.00;97208.51;619598;222;31936;-75
2021/12/18 03:57:44;;;;;;;6.97;1.95;;;0.60;1.40;;;2.05;100.00;97203.64;647603;216;31628;-75
2021/12/18 04:00:27;;;;;;;4.37;3.12;;;0.60;1.40;;;2.11;100.00;97206.55;647973;216;31732;-74
2021/12/18 04:03:12;;;;;;;7.20;3.37;;;0.70;1.40;;;2.24;100.00;97209.20;620187;226;32048;-75
2021/12/18 04:05:53;;;;;;;3.40;2.85;;;0.70;1.40;;;2.12;100.00;97207.63;639073;212;31722;-75
2021/12/18 04:08:35;;;;;;;2.40;2.20;;;0.60;1.40;;;1.97;100.00;97213.29;618502;222;32126;-74
2021/12/18 04:11:20;;;;;;;4.60;1.95;;;0.50;1.40;;;1.76;100.00;97215.38;618721;222;32434;-74
2021/12/18 04:14:03;;;;;;;4.57;4.20;;;0.50;1.40;;;1.87;100.00;97207.86;648425;212;40333;-74
2021/12/18 04:16:46;;;;;;;3.35;1.62;;;0.50;1.40;;;1.38;100.00;97214.35;647543;212;31668;-75
2021/12/18 04:19:28;;;;;;;3.37;2.95;;;0.40;1.40;;;1.30;100.00;97223.27;645935;212;31711;-75
2021/12/18 04:22:09;;;;;;;4.47;2.35;;;0.40;1.40;;;1.08;100.00;97226.32;646650;216;31670;-74
2021/12/18 04:24:51;;;;;;;3.40;2.00;;;0.30;1.40;;;0.94;100.00;97211.43;646526;216;32202;-74
2021/12/18 04:27:38;;;;;;;3.03;2.30;;;0.30;1.40;;;0.91;100.00;97217.73;620409;223;33333;-75
2021/12/18 04:30:19;;;;;;;2.58;2.15;;;0.20;1.40;;;0.93;100.00;97226.68;619097;226;32110;-74
2021/12/18 04:33:01;;;;;;;3.90;2.22;;;0.20;1.40;;;1.19;100.00;97222.30;616377;227;31935;-75
2021/12/18 04:35:51;;;;;;;4.30;2.60;;;0.30;1.40;;;1.53;100.00;97223.45;646199;216;31592;-75
2021/12/18 04:38:34;;;;;;;4.43;3.25;;;0.50;1.40;;;1.87;100.00;97223.93;619829;222;32205;-75
2021/12/18 04:41:23;;;;;;;4.20;2.55;;;0.50;1.40;;;2.01;100.00;97219.22;646037;216;31566;-74
2021/12/18 04:44:02;;;;;;;3.72;3.42;;;0.60;1.40;;;2.11;100.00;97220.89;646659;216;31874;-75
2021/12/18 04:46:44;;;;;;;3.05;2.85;;;0.60;1.40;;;2.19;100.00;97224.47;647065;216;31568;-75
2021/12/18 04:49:25;;;;;;;3.10;2.30;;;0.70;1.40;;;2.07;100.00;97228.86;645793;216;31622;-75
2021/12/18 04:52:07;;;;;;;7.30;3.83;;;0.60;1.40;;;2.10;100.00;97224.81;647256;216;31587;-75
2021/12/18 04:54:49;;;;;;;4.45;1.62;;;0.60;1.40;;;2.14;100.00;97225.48;646860;212;31605;-75
2021/12/18 04:57:34;;;;;;;4.50;3.22;;;0.60;1.40;;;1.66;100.00;97234.55;647459;216;31606;-75
2021/12/18 05:00:18;;;;;;;3.87;3.10;;;0.50;1.40;;;1.43;100.00;97234.87;647122;216;31615;-74
2021/12/18 05:03:02;;;;;;;3.40;1.70;;;0.40;1.40;;;1.20;100.00;97231.20;647457;212;39291;-75
2021/12/18 05:05:43;;;;;;;3.35;2.03;;;0.30;1.40;;;1.65;100.00;97236.95;614273;226;32172;-75
2021/12/18 05:08:25;;;;;;;5.82;2.97;;;0.50;1.40;;;1.93;100.00;97235.12;647920;216;31657;-75
2021/12/18 05:11:09;;;;;;;2.50;2.08;;;0.50;1.40;;;1.81;100.00;97239.25;647529;212;31549;-75
2021/12/18 05:13:51;;;;;;;4.03;3.50;;;0.50;1.40;;;1.67;100.00;97240.06;647661;216;42344;-74
2021/12/18 05:16:33;;;;;;;3.60;2.20;;;0.50;1.40;;;1.77;100.00;97244.95;647850;216;31709;-74
2021/12/18 05:19:14;;;;;;;7.95;3.50;;;0.50;1.40;;;1.86;100.00;97246.81;646308;212;31567;-75
2021/12/18 05:21:56;;;;;;;5.10;2.95;;;0.60;1.40;;;1.73;100.00;97245.77;619022;226;32167;-74
2021/12/18 05:24:39;;;;;;;5.25;3.55;;;0.50;1.40;;;1.48;100.00;97242.50;647284;212;31608;-74
2021/12/18 05:27:20;;;;;;;5.62;3.22;;;0.40;1.40;;;1.69;100.00;97234.13;647246;212;31838;-75
2021/12/18 05:30:03;;;;;;;4.83;3.90;;;0.40;1.40;;;1.87;100.00;97236.67;647067;216;31614;-75
2021/12/18 05:32:44;;;;;;;3.37;2.47;;;0.50;1.40;;;1.61;100.00;97238.11;647028;212;32217;-75
2021/12/18 05:35:52;;;;;;;3.03;2.83;;;0.40;1.40;;;1.32;100.00;97237.62;648116;216;31589;-74
2021/12/18 05:38:33;;;;;;;5.90;3.22;;;0.40;1.40;;;1.19;100.00;97239.16;647227;215;31554;-74
2021/12/18 05:41:17;;;;;;;5.57;2.60;;;0.30;1.40;;;1.06;100.00;97239.59;646209;212;31612;-75
2021/12/18 05:43:59;;;;;;;2.78;1.52;;;0.30;1.40;;;1.01;100.00;97235.73;646694;212;31564;-74
2021/12/18 05:46:41;;;;;;;1.37;1.17;;;0.30;1.40;;;1.30;100.00;97227.91;647130;212;42643;-75
2021/12/18 05:49:22;;;;;;;3.33;2.62;;;0.40;1.40;;;1.53;100.00;97231.19;645419;216;32075;-75
2021/12/18 05:52:05;;;;;;;5.62;3.87;;;0.40;1.40;;;1.60;100.00;97230.95;647142;212;31704;-75
2021/12/18 05:54:47;;;;;;;2.15;1.95;;;0.50;1.40;;;1.36;100.00;97231.53;647713;212;31701;-78
2021/12/18 05:57:33;;;;;;;4.57;3.15;;;0.30;1.40;;;1.78;100.00;97228.79;618470;222;32136;-75
2021/12/18 06:00:15;;;;;;;4.30;3.95;;;0.50;1.40;;;2.04;100.00;97228.97;645131;216;31571;-75
2021/12/18 06:03:00;;;;;;;3.12;2.78;;;0.50;1.40;;;2.08;100.00;97229.86;646912;216;31551;-74
2021/12/18 06:05:42;;;;;;;4.07;2.47;;;0.50;1.40;;;2.09;100.00;97236.08;639887;216;31693;-75
2021/12/18 06:08:24;;;;;;;4.70;4.20;;;0.50;1.40;;;2.17;100.00;97242.84;618698;226;31985;-75
2021/12/18 06:11:11;;;;;;;3.72;3.42;;;0.50;1.40;;;1.71;100.00;97243.75;646634;212;31547;-75
2021/12/18 06:13:50;;;;;;;2.75;2.22;;;0.50;1.40;;;1.90;100.00;97243.17;618243;222;32071;-76
2021/12/18 06:16:31;;;;;;;2.10;1.80;;;0.50;1.40;;;1.86;100.00;97246.65;646438;212;31557;-74
2021/12/18 06:19:13;;;;;;;2.40;2.30;;;0.50;1.40;;;1.77;100.00;97248.23;646286;212;31628;-75
2021/12/18 06:21:55;;;;;;;5.07;2.80;;;0.50;1.40;;;1.35;100.00;97252.70;620550;226;31932;-75
2021/12/18 06:24:37;;;;;;;3.53;2.22;;;0.30;1.40;;;1.14;100.00;97249.81;647053;216;31581;-75
2021/12/18 06:27:18;;;;;;;3.28;2.42;;;0.20;1.40;;;1.26;100.00;97252.49;646778;216;31530;-74
2021/12/18 06:30:01;;;;;;;4.20;2.78;;;0.30;1.40;;;1.49;100.00;97257.86;646910;212;31507;-75
2021/12/18 06:32:42;;;;;;;3.58;3.17;;;0.40;1.40;;;1.69;100.00;97256.48;646414;216;32071;-74
2021/12/18 06:35:51;;;;;;;4.28;2.58;;;0.40;1.40;;;1.95;100.00;97253.70;648315;213;31744;-74
2021/12/18 06:38:33;;;;;;;4.80;2.30;;;0.50;1.40;;;2.07;100.00;97253.09;619656;222;31880;-75
2021/12/18 06:41:14;;;;;;;5.70;1.90;;;0.50;1.40;;;1.81;100.00;97258.27;647196;212;31562;-75
2021/12/18 06:43:57;;;;;;;3.20;2.58;;;0.50;1.40;;;1.79;100.00;97252.59;646812;212;31627;-73
2021/12/18 06:46:39;;;;;;;2.85;1.80;;;0.50;1.40;;;1.93;100.00;97250.39;646651;216;31819;-75
2021/12/18 06:49:20;;;;;;;5.97;3.50;;;0.60;1.40;;;1.86;100.00;97247.45;646528;216;32227;-75
2021/12/18 06:52:02;;;;;;;4.03;3.72;;;0.50;1.40;;;1.86;100.00;97239.36;620203;222;32015;-74
2021/12/18 06:54:44;;;;;;;2.97;2.00;;;0.60;1.40;;;2.05;100.00;97234.39;618392;222;31882;-75
2021/12/18 06:57:26;;;;;;;3.13;2.90;;;0.60;1.40;;;1.58;100.00;97231.31;647694;212;33355;-75
2021/12/18 07:00:11;;;;;;;3.00;2.80;;;0.40;1.40;;;1.47;100.00;97227.91;646873;216;31882;-75
2021/12/18 07:02:52;;;;;;;4.00;1.98;;;0.40;1.40;;;1.31;100.00;97229.00;648282;216;31518;-75
2021/12/18 07:05:37;;;;;;;2.10;1.60;;;0.40;1.40;;;1.36;100.00;97232.66;648067;212;31617;-75
2021/12/18 07:08:20;;;;;;;2.20;2.00;;;0.40;1.40;;;1.35;100.00;97233.55;646311;216;31597;-75
2021/12/18 07:11:01;;;;;;;4.07;1.80;;;0.40;1.40;;;1.29;100.00;97236.98;646857;216;31553;-74
2021/12/18 07:13:43;;;;;;;2.80;2.40;;;0.30;1.40;;;1.12;100.00;97238.47;619461;226;44114;-74
2021/12/18 07:16:25;;;;;;;1.07;1.07;;;0.30;1.40;;;0.81;100.00;97236.88;646195;216;31591;-75
2021/12/18 07:19:06;;;;;;;2.37;2.20;;;0.10;1.40;;;1.08;100.00;97233.21;646748;216;31703;-74
2021/12/18 07:21:48;;;;;;;1.83;1.10;;;0.20;1.40;;;0.96;100.00;97239.15;647117;216;31563;-75
2021/12/18 07:24:30;;;;;;;2.75;1.20;;;0.20;1.40;;;0.90;100.00;97232.86;647129;212;31526;-73
2021/12/18 07:27:12;;;;;;;2.00;1.20;;;0.20;1.40;;;0.75;100.00;97232.79;646982;212;31719;-75
2021/12/18 07:29:53;;;;;;;1.55;1.45;;;0.10;1.40;;;1.12;100.00;97227.22;646569;212;31619;-73
2021/12/18 07:32:35;;;;;;;1.60;1.40;;;0.20;1.40;;;1.42;100.00;97229.04;645966;216;31710;-75
2021/12/18 07:35:52;;;;;;;2.87;0.93;;;0.30;1.40;;;1.45;100.00;97229.78;647302;216;42188;-75
2021/12/18 07:38:34;;;;;;;1.55;0.80;;;0.30;1.40;;;1.14;100.00;97225.78;647593;216;31584;-73
2021/12/18 07:41:15;;;;;;;0.70;0.70;;;0.20;1.40;;;1.17;100.00;97227.23;645722;212;31657;-75
2021/12/18 07:43:57;;;;;;;0.90;0.80;;;0.20;1.40;;;1.31;100.00;97232.08;646924;212;32013;-74
2021/12/18 07:49:13;;;;;;;1.80;1.27;;;0.20;1.40;;;1.35;100.00;97236.44;646544;212;31593;-74
2021/12/18 07:51:59;;;;;;;3.70;2.00;;;0.20;1.40;;;1.26;100.00;97234.61;647350;212;31529;-75
2021/12/18 07:57:11;;;;;;;1.20;0.60;;;0.20;1.40;;;1.06;100.00;97237.19;646735;216;32385;-74
2021/12/18 07:59:52;;;;;;;3.12;1.55;;;0.10;1.40;;;1.02;100.00;97234.48;646539;212;31537;-74
2021/12/18 08:02:37;;;;;;;3.90;1.20;;;0.10;1.40;;;1.16;100.00;97235.34;647340;216;31546;-75
2021/12/18 08:05:19;;;;;;;2.70;2.50;;;0.10;1.40;;;0.96;100.00;97238.95;642282;216;31788;-75
2021/12/18 08:08:00;;;;;;;5.70;2.40;;;0.00;1.40;;;1.14;100.00;97245.66;647157;212;31556;-75
2021/12/18 08:10:42;;;;;;;4.30;1.60;;;0.10;1.40;;;1.17;100.00;97242.39;647207;216;31541;-75
2021/12/18 08:13:24;;;;;;;1.87;1.15;;;0.20;1.40;;;1.41;100.00;97245.64;647204;216;31814;-74
2021/12/18 08:16:05;;;;;;;3.20;1.60;;;0.30;1.40;;;1.44;100.00;97245.23;647256;216;32798;-75
2021/12/18 08:18:50;;;;;;;1.58;1.48;;;0.30;1.40;;;1.44;100.00;97246.06;646364;216;31644;-74
2021/12/18 08:21:33;;;;;;;2.50;1.08;;;0.30;1.40;;;1.63;100.00;97245.61;646929;212;31700;-75
2021/12/18 08:24:14;;;;;;;1.90;1.70;;;0.40;1.40;;;1.77;100.00;97243.91;646830;212;31785;-73
2021/12/18 08:26:56;;;;;;;2.55;1.60;;;0.40;1.40;;;2.02;100.00;97246.30;619762;222;32478;-75
2021/12/18 08:29:38;;;;;;;2.60;2.10;;;0.60;1.40;;;1.65;100.00;97250.20;646976;212;33145;-75
2021/12/18 08:32:20;;;;;;;1.80;1.70;;;0.40;1.40;;;1.14;100.00;97243.47;646543;212;31820;-74
2021/12/18 08:35:51;;;;;;;1.98;1.10;;;0.10;1.40;;;1.41;100.00;97243.75;646219;216;31578;-73
2021/12/18 08:38:34;;;;;;;1.30;1.10;;;0.20;1.40;;;1.71;100.00;97247.98;620257;222;31873;-74
2021/12/18 08:41:16;;;;;;;2.42;1.50;;;0.40;1.40;;;1.29;100.00;97242.08;647634;216;31565;-75
2021/12/18 08:43:57;;;;;;;3.45;1.85;;;0.30;1.40;;;1.19;100.00;97247.39;646450;212;31722;-74
2021/12/18 08:46:39;;;;;;;2.08;1.75;;;0.20;1.40;;;1.47;100.00;97244.02;646908;216;31565;-75
2021/12/18 08:49:23;;;;;;;1.92;1.75;;;0.40;1.40;;;0.89;100.00;97239.48;645605;216;31530;-74
2021/12/18 08:52:06;;;;;;;2.83;2.60;;;0.10;1.40;;;0.99;100.00;97238.09;619993;222;32468;-75
2021/12/18 08:54:47;;;;;;;3.00;2.05;;;0.20;1.40;;;1.67;100.00;97241.50;646848;212;31612;-75
2021/12/18 08:57:29;;;;;;;2.47;2.08;;;0.50;1.40;;;1.52;100.00;97241.96;647361;216;31502;-75
2021/12/18 09:00:11;;;;;;;3.90;2.28;;;0.40;1.40;;;1.83;100.00;97241.08;647186;212;31585;-75
2021/12/18 09:02:54;;;;;;;1.20;1.10;;;0.60;1.40;;;2.19;100.00;97245.20;619672;222;31901;-72
2021/12/18 09:05:34;;;;;;;1.20;1.10;;;0.70;1.40;;;2.27;100.00;97245.41;639587;212;31750;-75
2021/12/18 09:08:16;;;;;;;0.93;0.90;;;0.80;1.40;;;2.38;100.00;97241.97;646670;212;31572;-74
2021/12/18 09:10:58;;;;;;;1.55;1.40;;;0.80;1.40;;;1.90;100.00;97247.48;647894;216;31643;-74
2021/12/18 09:13:40;;;;;;;1.60;1.50;;;0.60;1.40;;;1.47;100.00;97250.71;646876;216;31657;-75
2021/12/18 09:16:23;;;;;;;1.90;1.30;;;0.50;1.40;;;1.13;100.00;97249.75;646793;216;32299;-75
2021/12/18 09:19:05;;;;;;;2.95;1.15;;;0.30;1.40;;;1.43;100.00;97252.83;647486;216;31555;-75
2021/12/18 09:21:46;;;;;;;3.20;1.50;;;0.40;1.40;;;1.97;100.00;97253.76;646149;216;31599;-75
2021/12/18 09:24:31;;;;;;;4.55;2.30;;;0.60;1.40;;;2.26;100.00;97252.28;647422;216;31520;-75
2021/12/18 09:27:15;;;;;;;3.10;1.33;;;0.70;1.40;;;2.37;100.00;97250.61;647768;213;31622;-74
2021/12/18 09:29:57;;;;;;;1.97;1.20;;;0.70;1.40;;;1.97;100.00;97254.72;647253;212;33107;-75
2021/12/18 09:32:39;;;;;;;1.77;1.20;;;0.60;1.40;;;2.28;100.00;97248.16;647524;212;31859;-76
2021/12/18 09:35:51;;;;;;;2.08;1.27;;;0.80;1.40;;;1.66;100.00;97240.80;645172;216;31583;-75
2021/12/18 09:38:33;;;;;;;2.30;2.20;;;0.70;1.40;;;1.57;100.00;97240.61;647054;215;31578;-75
2021/12/18 09:41:15;;;;;;;1.60;1.50;;;0.60;1.40;;;2.26;100.00;97239.38;647330;216;31604;-76
2021/12/18 09:43:57;;;;;;;1.20;0.80;;;0.90;1.40;;;2.68;100.00;97239.44;619436;222;32102;-76
2021/12/18 09:46:39;;;;;;;3.20;2.53;;;1.00;1.40;;;2.77;100.00;97233.64;646638;212;31560;-76
2021/12/18 09:49:21;;;;;;;3.50;2.40;;;1.00;1.40;;;2.86;100.00;97225.36;616042;226;32057;-76
2021/12/18 09:52:03;;;;;;;1.98;1.87;;;1.00;1.40;;;2.93;100.00;97224.05;647182;212;32616;-75
2021/12/18 09:54:44;;;;;;;1.25;1.05;;;1.00;1.40;;;2.88;100.00;97221.95;647619;212;31581;-76
2021/12/18 09:57:26;;;;;;;3.50;1.95;;;1.10;1.40;;;2.96;100.00;97217.83;646555;212;31506;-76
2021/12/18 10:00:14;;;;;;;1.70;1.00;;;1.00;1.40;;;2.51;100.00;97219.02;648006;216;31544;-76
2021/12/18 10:02:55;;;;;;;2.12;2.03;;;0.80;1.40;;;1.90;100.00;97224.13;646881;212;31573;-75
2021/12/18 10:05:38;;;;;;;2.43;2.27;;;0.70;1.40;;;1.79;100.00;97222.85;639993;216;40116;-75
2021/12/18 10:08:19;;;;;;;1.75;1.48;;;0.70;1.40;;;2.60;100.00;97221.75;646670;212;31577;-76
2021/12/18 10:11:07;;;;;;;2.30;1.08;;;1.00;1.40;;;2.38;100.00;97222.92;646510;212;31530;-76
2021/12/18 10:13:53;;;;;;;1.80;1.70;;;1.00;1.40;;;2.88;100.00;97204.53;648734;216;31545;-74
2021/12/18 10:16:46;;;;;;;3.03;1.40;;;1.10;1.40;;;2.41;100.00;97203.36;646019;216;31518;-76
2021/12/18 10:19:30;;;;;;;1.30;1.25;;;1.00;1.40;;;2.68;100.00;97199.02;646947;216;31569;-75
2021/12/18 10:22:15;;;;;;;2.60;2.40;;;1.10;1.40;;;2.78;100.00;97197.62;646619;212;31723;-76
2021/12/18 10:25:00;;;;;;;9.98;1.85;;;1.20;1.40;;;2.78;100.00;97195.30;647398;216;31554;-75
2021/12/18 10:27:44;;;;;;;2.60;2.10;;;1.20;1.40;;;2.65;100.00;97196.27;646609;216;31577;-75
2021/12/18 10:30:26;;;;;;;2.08;1.48;;;1.10;1.40;;;3.03;100.00;97192.61;647298;212;31592;-76
2021/12/18 10:35:55;;;;;;;2.97;1.52;;;1.20;1.40;;;2.69;100.00;97197.50;619197;226;32018;-75
2021/12/18 10:38:45;;;;;;;5.22;2.55;;;1.10;1.40;;;2.55;100.00;97193.20;646504;216;31521;-76
2021/12/18 10:41:29;;;;;;;3.10;2.03;;;1.20;1.40;;;2.87;100.00;97192.23;620117;226;31970;-75
2021/12/18 10:44:11;;;;;;;2.92;2.72;;;1.20;1.40;;;2.66;100.00;97192.22;647568;216;42188;-75
2021/12/18 10:46:53;;;;;;;2.90;2.40;;;1.20;1.40;;;2.77;100.00;97193.80;646693;212;31531;-75
2021/12/18 10:49:39;;;;;;;2.58;1.90;;;1.20;1.40;;;1.93;100.00;97197.61;647696;212;31702;-75
2021/12/18 10:52:21;;;;;;;3.70;2.85;;;0.80;1.40;;;2.56;100.00;97196.28;645730;212;32224;-74
2021/12/18 10:55:03;;;;;;;4.40;3.00;;;1.10;1.40;;;2.66;100.00;97195.11;647735;212;31690;-74
2021/12/18 10:57:52;;;;;;;3.40;2.90;;;1.10;1.40;;;2.83;100.00;97190.38;619166;226;32432;-75
2021/12/18 11:00:36;;;;;;;2.72;2.37;;;1.20;1.40;;;3.35;100.00;97193.30;646951;216;31618;-72
2021/12/18 11:03:38;;;;;;;4.68;1.92;;;1.50;1.40;;;2.71;100.00;97183.10;619552;226;31879;-74
2021/12/18 11:06:26;;;;;;;2.25;1.87;;;1.30;1.40;;;2.81;100.00;97175.04;636192;212;32423;-74
2021/12/18 11:09:10;;;;;;;3.67;1.90;;;1.20;1.40;;;3.36;100.00;97168.95;646024;216;31734;-75
2021/12/18 11:14:40;;;;;;;4.72;2.80;;;1.60;1.40;;;3.66;100.00;97160.53;647884;216;31736;-76
2021/12/18 11:17:22;;;;;;;2.90;2.60;;;1.70;1.40;;;3.47;100.00;97165.19;647320;216;31590;-75
2021/12/18 11:20:05;;;;;;;2.00;1.80;;;1.40;1.40;;;2.53;100.00;97158.20;643158;215;31539;-74
2021/12/18 11:22:46;;;;;;;4.80;3.53;;;1.20;1.40;;;2.54;100.00;97151.71;619486;226;32033;-75
2021/12/18 11:25:28;;;;;;;2.30;1.75;;;1.20;1.40;;;2.44;100.00;97137.80;646601;212;31657;-75
2021/12/18 11:28:10;;;;;;;1.40;1.30;;;1.10;1.40;;;3.09;100.00;97133.25;646862;216;31671;-75
2021/12/18 11:30:51;;;;;;;3.95;3.55;;;1.40;1.40;;;3.41;100.00;97127.73;619318;226;32406;-75
2021/12/18 11:35:54;;;;;;;3.70;3.40;;;1.70;1.40;;;3.80;100.00;97126.47;645952;216;31570;-75
2021/12/18 11:38:36;;;;;;;2.87;2.55;;;1.80;1.40;;;3.23;100.00;97123.30;642218;217;31648;-75
2021/12/18 11:41:18;;;;;;;3.55;3.25;;;1.60;1.40;;;2.78;100.00;97121.49;630721;222;31954;-75
2021/12/18 11:43:59;;;;;;;2.80;2.12;;;1.40;1.40;;;2.38;100.00;97123.59;646976;216;31548;-75
2021/12/18 11:46:41;;;;;;;4.10;3.30;;;1.20;1.40;;;2.55;100.00;97122.58;647072;216;42977;-75
2021/12/18 11:49:26;;;;;;;3.33;2.30;;;1.20;1.40;;;2.44;100.00;97125.59;618996;226;32090;-75
2021/12/18 11:52:07;;;;;;;4.12;3.20;;;1.10;1.40;;;2.46;100.00;97119.52;647409;216;31714;-75
2021/12/18 11:54:50;;;;;;;3.50;1.85;;;1.30;1.40;;;2.80;100.00;97114.25;619545;222;32331;-75
2021/12/18 11:57:48;;;;;;;4.20;3.80;;;1.40;1.40;;;3.34;100.00;97107.86;645927;216;31550;-74
2021/12/18 12:03:01;;;;;;;3.97;3.45;;;1.70;1.40;;;3.78;100.00;97102.38;618667;226;31881;-75
2021/12/18 12:05:44;;;;;;;3.58;3.28;;;1.70;1.40;;;3.83;100.00;97100.17;639704;212;31679;-75
2021/12/18 12:08:33;;;;;;;3.65;3.35;;;1.80;1.40;;;3.78;100.00;97092.47;647361;216;31738;-75
2021/12/18 12:11:24;;;;;;;2.40;1.80;;;1.80;1.40;;;3.89;100.00;97093.38;646143;216;31882;-75
2021/12/18 12:14:11;;;;;;;3.55;2.90;;;1.80;1.40;;;3.83;100.00;97088.42;646340;216;31571;-75
2021/12/18 12:17:08;;;;;;;5.07;2.40;;;1.80;1.40;;;3.93;100.00;97086.73;646819;216;31560;-75
2021/12/18 12:19:50;;;;;;;4.50;2.37;;;1.70;1.40;;;3.60;100.00;97085.42;647950;216;31586;-75
2021/12/18 12:22:39;;;;;;;2.20;1.73;;;1.60;1.40;;;2.90;100.00;97083.92;646766;212;31582;-75
2021/12/18 12:25:33;;;;;;;4.80;4.40;;;1.40;1.40;;;2.93;100.00;97081.82;646506;216;31674;-75
2021/12/18 12:28:14;;;;;;;2.50;1.98;;;1.40;1.40;;;3.32;100.00;97080.63;645484;212;31648;-75
2021/12/18 12:31:10;;;;;;;2.53;2.33;;;1.50;1.40;;;3.10;100.00;97084.25;647079;216;31592;-75
2021/12/18 12:36:03;;;;;;;2.10;1.90;;;1.60;1.40;;;3.33;100.00;97085.41;647194;216;31572;-76
2021/12/18 12:38:58;;;;;;;1.95;1.65;;;1.60;1.40;;;3.34;100.00;97086.53;616688;227;32316;-75